Time;durP1;ratioP1;P1;durP2;ratioP2;P2;SDS_P1;SDS_P2;PMS_P1;PMS_P2;Temp;Humidity;BMP_temperature;BMP_pressure;BME280_temperature;BME280_humidity;BME280_pressure;Samples;Min_cycle;Max_cycle;Signal;HPM_P1;HPM_P2
2023/06/06 00:02:31;;;;;;;1.30;1.02;;;25.00;52.60;;;;;;6289693;28;20036;-52
2023/06/06 00:05:36;;;;;;;1.25;1.15;;;24.90;52.40;;;;;;6292024;28;20028;-52
2023/06/06 00:08:37;;;;;;;1.10;1.00;;;24.90;52.40;;;;;;6291443;28;20040;-51
2023/06/06 00:11:39;;;;;;;1.40;1.30;;;24.70;52.20;;;;;;6289798;28;20045;-52
2023/06/06 00:14:44;;;;;;;1.20;1.10;;;24.90;52.30;;;;;;6289559;28;20043;-54
2023/06/06 00:17:48;;;;;;;1.52;1.20;;;24.90;51.50;;;;;;6289922;28;20037;-54
2023/06/06 00:20:53;;;;;;;1.55;1.15;;;24.90;52.20;;;;;;6287120;28;20033;-59
2023/06/06 00:23:56;;;;;;;1.45;0.88;;;24.60;52.00;;;;;;6288651;28;20491;-59
2023/06/06 00:26:57;;;;;;;1.20;1.10;;;24.90;52.20;;;;;;6288230;28;20086;-59
2023/06/06 00:29:59;;;;;;;1.10;1.00;;;24.90;52.20;;;;;;6288063;28;20040;-59
2023/06/06 00:33:01;;;;;;;1.63;1.40;;;24.90;52.80;;;;;;6288495;28;20049;-59
2023/06/06 00:36:03;;;;;;;1.55;1.08;;;24.90;52.20;;;;;;6288308;28;20029;-59
2023/06/06 00:39:05;;;;;;;1.30;0.85;;;24.60;51.90;;;;;;6289241;28;20052;-59
2023/06/06 00:42:09;;;;;;;0.80;0.80;;;24.90;52.10;;;;;;6292337;28;20043;-59
2023/06/06 00:45:14;;;;;;;1.08;0.90;;;24.70;51.80;;;;;;6292288;28;20048;-59
2023/06/06 00:48:18;;;;;;;0.95;0.85;;;24.80;51.90;;;;;;6292025;28;20037;-59
2023/06/06 00:51:20;;;;;;;1.10;0.80;;;24.90;51.90;;;;;;6292801;28;20044;-59
2023/06/06 00:54:22;;;;;;;1.10;1.00;;;24.90;51.90;;;;;;6292693;28;20097;-59
2023/06/06 00:57:26;;;;;;;0.95;0.80;;;24.90;51.90;;;;;;6291955;28;20052;-59
2023/06/06 01:00:32;;;;;;;0.85;0.82;;;25.00;51.80;;;;;;6291649;28;20036;-59
2023/06/06 01:03:34;;;;;;;0.90;0.90;;;25.00;51.80;;;;;;6291761;28;20090;-59
2023/06/06 01:06:38;;;;;;;0.90;0.70;;;24.50;51.40;;;;;;6292608;28;20059;-52
2023/06/06 01:09:40;;;;;;;1.20;0.80;;;24.70;51.60;;;;;;6294571;28;20500;-50
2023/06/06 01:12:55;;;;;;;0.90;0.80;;;25.00;51.80;;;;;;6294878;28;20040;-52
2023/06/06 01:16:04;;;;;;;0.70;0.70;;;24.90;51.80;;;;;;6294087;28;20036;-52
2023/06/06 01:19:11;;;;;;;0.65;0.65;;;25.00;51.70;;;;;;6294932;28;20102;-55
2023/06/06 01:22:22;;;;;;;0.70;0.60;;;24.90;51.70;;;;;;6290071;28;20045;-55
2023/06/06 01:25:25;;;;;;;0.80;0.80;;;24.70;51.50;;;;;;6293345;28;20714;-55
2023/06/06 01:28:27;;;;;;;0.80;0.68;;;24.90;51.80;;;;;;6293416;28;20045;-54
2023/06/06 01:31:36;;;;;;;0.60;0.50;;;24.90;51.60;;;;;;6294843;28;20045;-51
2023/06/06 01:34:48;;;;;;;0.98;0.75;;;24.90;51.70;;;;;;6295583;28;20115;-51
2023/06/06 01:38:00;;;;;;;0.85;0.70;;;24.90;51.50;;;;;;6293730;28;20082;-54
2023/06/06 01:41:03;;;;;;;0.73;0.63;;;24.50;51.30;;;;;;6293959;28;20044;-51
2023/06/06 01:44:08;;;;;;;0.65;0.60;;;24.40;51.20;;;;;;6294979;28;20041;-53
2023/06/06 01:47:12;;;;;;;0.85;0.82;;;24.90;51.40;;;;;;6293457;28;20032;-52
2023/06/06 01:50:14;;;;;;;0.80;0.70;;;24.40;51.30;;;;;;6293202;28;20226;-53
2023/06/06 01:53:19;;;;;;;0.70;0.65;;;24.90;51.60;;;;;;6293548;28;20036;-53
2023/06/06 01:56:21;;;;;;;1.00;0.90;;;25.00;51.60;;;;;;6294175;28;20616;-54
2023/06/06 01:59:23;;;;;;;0.88;0.70;;;24.80;51.60;;;;;;6293657;28;20048;-53
2023/06/06 02:02:25;;;;;;;0.90;0.77;;;24.90;51.50;;;;;;6294442;28;20052;-53
2023/06/06 02:05:27;;;;;;;0.60;0.60;;;24.70;51.30;;;;;;6292222;28;20075;-50
2023/06/06 02:08:29;;;;;;;0.80;0.65;;;24.80;51.50;;;;;;6293205;28;20499;-52
2023/06/06 02:11:34;;;;;;;0.55;0.47;;;24.90;51.50;;;;;;6293849;28;20032;-53
2023/06/06 02:14:38;;;;;;;0.73;0.73;;;24.80;51.30;;;;;;6295721;28;20037;-51
2023/06/06 02:17:40;;;;;;;1.48;0.93;;;24.70;51.40;;;;;;6295738;28;20036;-52
2023/06/06 02:20:42;;;;;;;0.60;0.60;;;24.70;51.30;;;;;;6293470;28;20209;-52
2023/06/06 02:23:44;;;;;;;0.80;0.52;;;24.70;51.60;;;;;;6295641;28;20067;-53
2023/06/06 02:26:48;;;;;;;0.77;0.63;;;24.90;51.50;;;;;;6295195;28;20035;-51
2023/06/06 02:29:53;;;;;;;0.77;0.63;;;24.70;51.60;;;;;;6295332;28;20056;-52
2023/06/06 02:32:57;;;;;;;1.00;0.63;;;24.90;51.60;;;;;;6295547;28;20047;-50
2023/06/06 02:35:58;;;;;;;1.15;0.70;;;24.90;51.70;;;;;;6295455;28;20128;-52
2023/06/06 02:39:01;;;;;;;0.63;0.50;;;24.80;51.70;;;;;;6295658;28;20071;-52
2023/06/06 02:42:02;;;;;;;0.90;0.70;;;24.80;51.40;;;;;;6294706;28;20040;-51
2023/06/06 02:45:05;;;;;;;0.65;0.60;;;24.70;51.40;;;;;;6294534;28;20056;-52
2023/06/06 02:48:08;;;;;;;1.00;0.63;;;24.40;51.20;;;;;;6295339;28;20488;-51
2023/06/06 02:51:12;;;;;;;0.50;0.50;;;24.70;51.40;;;;;;6259342;28;20534;-51
2023/06/06 02:54:14;;;;;;;0.63;0.50;;;24.70;51.40;;;;;;6292849;28;20076;-50
2023/06/06 02:57:16;;;;;;;0.73;0.73;;;24.60;51.30;;;;;;6284004;28;20037;-50
2023/06/06 03:00:18;;;;;;;0.47;0.47;;;24.70;51.30;;;;;;6292873;28;20049;-51
2023/06/06 03:03:20;;;;;;;0.45;0.45;;;24.40;51.00;;;;;;6291600;28;20107;-52
2023/06/06 03:06:22;;;;;;;1.08;0.65;;;24.70;51.40;;;;;;6291297;28;20185;-53
2023/06/06 03:09:26;;;;;;;0.50;0.40;;;24.60;51.30;;;;;;6292566;28;20115;-52
2023/06/06 03:12:30;;;;;;;0.60;0.55;;;24.70;51.30;;;;;;6291489;28;20028;-52
2023/06/06 03:15:32;;;;;;;1.00;0.60;;;24.50;51.20;;;;;;6292543;28;20028;-49
2023/06/06 03:18:36;;;;;;;0.63;0.60;;;24.70;51.40;;;;;;6293277;28;20043;-50
2023/06/06 03:21:43;;;;;;;0.70;0.70;;;24.60;51.30;;;;;;6292906;28;20032;-52
2023/06/06 03:24:46;;;;;;;0.80;0.50;;;24.30;51.20;;;;;;6293299;28;20052;-52
2023/06/06 03:27:54;;;;;;;0.95;0.68;;;24.30;51.10;;;;;;6291310;28;20040;-52
2023/06/06 03:30:56;;;;;;;0.70;0.70;;;24.50;50.10;;;;;;6292071;28;20656;-51
2023/06/06 03:33:58;;;;;;;0.73;0.70;;;24.50;51.30;;;;;;6291336;28;20064;-49
2023/06/06 03:37:02;;;;;;;1.23;0.60;;;24.50;51.40;;;;;;6291224;28;20037;-52
2023/06/06 03:40:06;;;;;;;0.75;0.65;;;24.60;51.90;;;;;;6290199;28;20040;-51
2023/06/06 03:43:07;;;;;;;0.60;0.60;;;24.50;51.20;;;;;;6293068;28;20049;-49
2023/06/06 03:46:10;;;;;;;0.90;0.70;;;24.50;51.10;;;;;;6295679;28;20044;-51
2023/06/06 03:49:15;;;;;;;1.70;0.80;;;24.50;51.20;;;;;;6301777;28;20040;-51
2023/06/06 03:52:16;;;;;;;1.00;0.60;;;24.60;49.90;;;;;;6300102;28;20037;-54
2023/06/06 03:55:18;;;;;;;2.65;0.68;;;24.60;50.50;;;;;;6300103;28;20032;-54
2023/06/06 03:58:24;;;;;;;2.20;0.80;;;24.20;50.30;;;;;;6295601;28;20037;-54
2023/06/06 04:01:31;;;;;;;2.20;1.15;;;24.50;50.60;;;;;;6299455;28;20151;-55
2023/06/06 04:04:32;;;;;;;3.22;0.65;;;24.50;50.60;;;;;;6307284;28;20032;-55
2023/06/06 04:07:37;;;;;;;3.13;0.70;;;24.50;51.00;;;;;;6303892;28;20155;-54
2023/06/06 04:10:42;;;;;;;2.28;1.00;;;24.60;51.10;;;;;;6308008;28;20408;-54
2023/06/06 04:13:44;;;;;;;1.83;0.90;;;24.50;51.00;;;;;;6321300;28;20032;-56
2023/06/06 04:16:46;;;;;;;1.10;0.88;;;24.60;52.40;;;;;;6330599;28;20029;-49
2023/06/06 04:19:49;;;;;;;3.60;0.70;;;24.50;53.30;;;;;;6400784;22;20107;-89
2023/06/06 04:22:53;;;;;;;1.00;0.70;;;;;;;;;;6340756;28;20117;-88
2023/06/06 04:25:56;;;;;;;2.53;0.95;;;24.30;63.70;;;;;;6332805;28;20040;-89
2023/06/06 04:28:59;;;;;;;1.83;0.80;;;24.50;54.90;;;;;;6337104;28;20036;-88
2023/06/06 04:32:03;;;;;;;2.80;1.00;;;25.90;55.40;;;;;;6330897;28;20040;-88
2023/06/06 04:35:06;;;;;;;1.00;0.80;;;23.90;54.10;;;;;;6311223;28;20063;-88
2023/06/06 04:38:08;;;;;;;2.13;0.93;;;23.60;54.30;;;;;;6330940;28;20524;-88
2023/06/06 04:41:12;;;;;;;2.78;0.70;;;;;;;;;;6325334;28;20046;-87
2023/06/06 04:44:34;;;;;;;2.40;0.75;;;24.20;73.60;;;;;;6324810;28;20036;-89
2023/06/06 04:47:38;;;;;;;0.85;0.60;;;26.20;55.50;;;;;;6329743;28;20153;-89
2023/06/06 04:50:42;;;;;;;1.67;0.70;;;23.80;54.00;;;;;;6326365;28;20217;-89
2023/06/06 04:53:44;;;;;;;1.15;0.70;;;24.10;54.30;;;;;;6336640;28;20471;-89
2023/06/06 04:56:51;;;;;;;0.70;0.55;;;25.50;56.20;;;;;;6339549;28;20044;-90
2023/06/06 04:59:56;;;;;;;0.80;0.60;;;24.30;51.20;;;;;;6341221;28;20052;-90
2023/06/06 05:02:59;;;;;;;0.70;0.55;;;;;;;;;;6335573;28;20044;-90
2023/06/06 05:06:05;;;;;;;1.95;1.08;;;24.10;51.00;;;;;;6333800;28;20075;-90
2023/06/06 05:09:35;;;;;;;1.20;0.70;;;25.10;56.20;;;;;;6315158;28;20116;-90
2023/06/06 05:12:51;;;;;;;0.55;0.50;;;22.70;53.50;;;;;;6351191;28;20066;-91
2023/06/06 05:16:05;;;;;;;;;;;23.90;53.70;;;;;;6350756;28;20055;-91
2023/06/06 05:19:27;;;;;;;1.13;0.68;;;25.00;54.50;;;;;;6298819;28;19991;-91
2023/06/06 05:26:35;;;;;;;1.60;0.75;;;22.50;52.40;;;;;;6259493;28;20045;-91
2023/06/06 05:29:47;;;;;;;0.60;0.50;;;23.30;53.20;;;;;;6249161;28;20060;-91
2023/06/06 05:32:55;;;;;;;0.90;0.60;;;24.50;53.70;;;;;;6290605;28;20075;-91
2023/06/06 05:35:58;;;;;;;1.02;0.70;;;24.20;53.50;;;;;;6274587;28;20061;-90
2023/06/06 05:39:03;;;;;;;0.82;0.60;;;24.90;54.80;;;;;;6289148;22;20530;-56
2023/06/06 05:42:08;;;;;;;0.52;0.50;;;24.00;52.30;;;;;;6309500;28;20036;-54
2023/06/06 05:45:10;;;;;;;0.98;0.65;;;24.20;52.10;;;;;;6310138;28;20260;-55
2023/06/06 05:48:12;;;;;;;0.60;0.52;;;23.90;52.20;;;;;;6302045;28;20039;-54
2023/06/06 05:51:16;;;;;;;0.77;0.43;;;24.10;52.00;;;;;;6306776;28;20040;-54
2023/06/06 05:54:18;;;;;;;1.00;0.70;;;24.20;52.20;;;;;;6311359;28;20044;-55
2023/06/06 05:57:20;;;;;;;0.60;0.60;;;24.30;52.20;;;;;;6311466;28;20036;-56
2023/06/06 06:00:23;;;;;;;0.98;0.80;;;24.20;52.10;;;;;;6312317;28;20048;-56
2023/06/06 06:03:28;;;;;;;1.20;0.70;;;24.10;51.80;;;;;;6296849;28;20043;-58
2023/06/06 06:06:34;;;;;;;1.77;0.63;;;24.20;50.20;;;;;;6299010;28;20028;-57
2023/06/06 06:09:37;;;;;;;1.17;0.77;;;24.20;51.70;;;;;;6298427;28;20093;-58
2023/06/06 06:12:39;;;;;;;4.28;2.00;;;24.10;51.80;;;;;;6288649;28;20044;-57
2023/06/06 06:15:40;;;;;;;4.15;2.08;;;24.30;52.00;;;;;;6297672;28;20673;-57
2023/06/06 06:18:44;;;;;;;4.28;2.63;;;24.00;52.10;;;;;;6300519;28;20740;-57
2023/06/06 06:21:45;;;;;;;4.80;3.10;;;24.10;52.10;;;;;;6307586;28;20043;-57
2023/06/06 06:24:49;;;;;;;6.30;3.40;;;24.10;51.90;;;;;;6292685;28;20033;-58
2023/06/06 06:27:53;;;;;;;6.28;3.72;;;23.90;52.00;;;;;;6307686;28;20043;-57
2023/06/06 06:30:58;;;;;;;8.25;3.85;;;24.00;52.20;;;;;;6308700;28;20419;-57
2023/06/06 06:33:59;;;;;;;6.85;3.90;;;23.50;52.00;;;;;;6289139;28;20073;-57
2023/06/06 06:37:01;;;;;;;6.90;4.05;;;23.80;52.40;;;;;;6298802;28;20040;-57
2023/06/06 06:40:06;;;;;;;4.72;3.88;;;24.00;52.60;;;;;;6289753;28;20070;-57
2023/06/06 06:43:08;;;;;;;5.72;3.55;;;23.60;52.50;;;;;;6288176;28;20036;-57
2023/06/06 06:46:17;;;;;;;6.03;3.35;;;23.90;52.80;;;;;;6293241;28;20115;-57
2023/06/06 06:49:22;;;;;;;5.28;3.28;;;23.80;53.00;;;;;;6288447;28;20040;-58
2023/06/06 06:52:23;;;;;;;5.50;3.03;;;23.70;52.70;;;;;;6294458;28;20039;-57
2023/06/06 06:55:26;;;;;;;5.20;3.53;;;23.80;53.10;;;;;;6274330;28;20611;-57
2023/06/06 06:58:33;;;;;;;9.23;3.50;;;23.80;51.60;;;;;;6284144;28;20043;-57
2023/06/06 07:01:37;;;;;;;6.03;3.63;;;23.80;52.90;;;;;;6282244;28;20115;-57
2023/06/06 07:04:39;;;;;;;4.53;2.97;;;23.40;52.50;;;;;;6273137;28;20036;-57
2023/06/06 07:07:46;;;;;;;5.53;3.50;;;23.80;53.10;;;;;;6264581;28;20035;-58
2023/06/06 07:10:48;;;;;;;6.68;3.70;;;23.80;52.90;;;;;;6270028;28;20060;-58
2023/06/06 07:13:49;;;;;;;5.13;3.42;;;23.50;53.20;;;;;;6284114;28;20036;-58
2023/06/06 07:16:51;;;;;;;5.25;2.38;;;23.30;52.60;;;;;;6272984;28;20058;-58
2023/06/06 07:19:53;;;;;;;3.95;2.53;;;23.70;53.10;;;;;;6274429;28;20728;-57
2023/06/06 07:22:56;;;;;;;4.35;2.20;;;23.70;53.10;;;;;;6276436;28;20029;-45
2023/06/06 07:25:59;;;;;;;3.25;2.05;;;23.80;53.00;;;;;;6286445;28;20035;-46
2023/06/06 07:29:01;;;;;;;4.55;2.40;;;24.00;53.30;;;;;;6278675;28;20730;-43
2023/06/06 07:32:03;;;;;;;4.03;1.85;;;23.80;53.10;;;;;;6271731;28;20043;-45
2023/06/06 07:35:09;;;;;;;4.10;2.00;;;24.00;52.90;;;;;;6272848;28;20040;-44
2023/06/06 07:38:13;;;;;;;4.30;3.35;;;23.90;53.10;;;;;;6278535;28;20048;-45
2023/06/06 07:41:15;;;;;;;5.28;3.13;;;23.90;52.60;;;;;;6287287;28;20036;-43
2023/06/06 07:44:17;;;;;;;5.97;3.83;;;23.90;52.70;;;;;;6282481;28;20024;-44
2023/06/06 07:47:19;;;;;;;6.18;3.90;;;23.90;52.20;;;;;;6290305;28;20033;-45
2023/06/06 07:50:21;;;;;;;5.50;4.00;;;23.90;52.40;;;;;;6279376;28;20098;-45
2023/06/06 07:53:23;;;;;;;6.90;4.60;;;23.80;52.30;;;;;;6293203;28;20104;-44
2023/06/06 07:56:24;;;;;;;8.63;4.47;;;23.90;52.40;;;;;;6291013;28;20554;-43
2023/06/06 07:59:26;;;;;;;6.88;5.30;;;23.80;52.40;;;;;;6251015;28;20055;-44
2023/06/06 08:02:29;;;;;;;8.55;4.28;;;23.80;52.30;;;;;;6244317;28;20116;-45
2023/06/06 08:05:34;;;;;;;5.78;3.28;;;23.80;52.70;;;;;;6240279;28;20064;-48
2023/06/06 08:08:36;;;;;;;5.80;3.38;;;23.90;52.60;;;;;;6253178;28;20450;-43
2023/06/06 08:11:38;;;;;;;5.72;3.28;;;23.60;52.40;;;;;;6258261;28;20068;-44
2023/06/06 08:14:39;;;;;;;4.50;2.50;;;23.90;52.10;;;;;;6268207;28;20719;-46
2023/06/06 08:17:42;;;;;;;3.47;2.30;;;23.80;52.20;;;;;;6265865;28;20509;-43
2023/06/06 08:20:43;;;;;;;5.88;2.45;;;24.00;52.00;;;;;;6259186;28;20044;-45
2023/06/06 08:23:45;;;;;;;5.75;2.83;;;23.60;52.30;;;;;;6265212;28;20044;-43
2023/06/06 08:26:46;;;;;;;3.60;2.20;;;24.00;52.00;;;;;;6257833;28;20135;-45
2023/06/06 08:29:50;;;;;;;2.88;2.28;;;23.60;51.90;;;;;;6265158;28;20045;-44
2023/06/06 08:32:53;;;;;;;2.05;1.70;;;24.00;51.80;;;;;;6259353;28;20126;-43
2023/06/06 08:35:54;;;;;;;3.15;1.88;;;24.00;51.90;;;;;;6264097;28;20037;-43
2023/06/06 08:39:06;;;;;;;2.10;1.90;;;24.00;52.20;;;;;;6255812;28;20273;-43
2023/06/06 08:42:11;;;;;;;2.42;1.80;;;24.10;51.80;;;;;;6265280;28;20107;-46
2023/06/06 08:45:13;;;;;;;1.92;1.40;;;24.20;51.60;;;;;;6255083;28;20567;-49
2023/06/06 08:48:16;;;;;;;2.72;1.70;;;24.10;51.60;;;;;;6270008;28;20035;-46
2023/06/06 08:51:24;;;;;;;1.85;1.63;;;24.20;51.50;;;;;;6268652;28;20032;-47
2023/06/06 08:54:26;;;;;;;1.38;1.23;;;24.20;51.50;;;;;;6266925;28;20102;-45
2023/06/06 08:57:28;;;;;;;1.92;1.30;;;25.00;52.10;;;;;;6239991;28;20421;-46
2023/06/06 09:00:31;;;;;;;1.88;1.38;;;24.20;51.70;;;;;;6238890;28;20119;-46
2023/06/06 09:03:35;;;;;;;1.92;1.48;;;24.20;50.30;;;;;;6239230;28;20028;-47
2023/06/06 09:06:43;;;;;;;1.65;1.55;;;24.30;51.60;;;;;;6232794;28;20116;-43
2023/06/06 09:09:48;;;;;;;2.92;1.40;;;23.60;51.00;;;;;;6265553;28;20044;-47
2023/06/06 09:12:50;;;;;;;1.90;1.13;;;24.20;51.10;;;;;;6274065;28;20041;-50
2023/06/06 09:15:53;;;;;;;1.75;1.30;;;24.20;51.20;;;;;;6273364;28;20035;-46
2023/06/06 09:18:57;;;;;;;1.63;1.40;;;24.20;51.10;;;;;;6271747;28;20067;-48
2023/06/06 09:22:00;;;;;;;1.33;1.23;;;24.30;51.30;;;;;;6259442;28;20044;-45
2023/06/06 09:25:04;;;;;;;2.25;2.05;;;24.40;51.30;;;;;;6232827;28;20713;-45
2023/06/06 09:28:06;;;;;;;3.30;2.95;;;24.50;51.50;;;;;;6226087;28;20111;-45
2023/06/06 09:31:22;;;;;;;4.75;3.22;;;24.30;51.70;;;;;;6222783;28;21143;-44
2023/06/06 09:34:25;;;;;;;5.95;4.47;;;24.40;51.50;;;;;;6238006;28;20094;-43
2023/06/06 09:37:27;;;;;;;6.00;3.15;;;24.30;51.50;;;;;;6257212;28;20037;-44
2023/06/06 09:40:29;;;;;;;6.55;3.47;;;24.30;51.50;;;;;;6278751;28;20040;-50
2023/06/06 09:43:34;;;;;;;7.10;4.25;;;24.40;51.60;;;;;;6271100;28;20067;-50
2023/06/06 09:46:36;;;;;;;6.53;4.13;;;24.20;51.30;;;;;;6263122;28;20443;-44
2023/06/06 09:49:38;;;;;;;5.60;4.15;;;24.50;51.60;;;;;;6270468;28;20043;-45
2023/06/06 09:52:40;;;;;;;7.95;3.92;;;24.50;51.50;;;;;;6266140;28;20032;-48
2023/06/06 09:55:45;;;;;;;5.60;4.40;;;24.60;51.50;;;;;;6268377;28;20070;-44
2023/06/06 09:58:56;;;;;;;6.53;4.80;;;24.50;51.40;;;;;;6263046;28;20541;-46
2023/06/06 10:02:05;;;;;;;7.72;4.47;;;24.30;51.70;;;;;;6264010;28;20037;-43
2023/06/06 10:05:11;;;;;;;6.10;4.47;;;24.40;51.30;;;;;;6278227;28;20130;-47
2023/06/06 10:08:15;;;;;;;6.80;3.92;;;24.50;51.30;;;;;;6270421;28;20069;-44
2023/06/06 10:11:20;;;;;;;5.28;3.70;;;24.60;51.30;;;;;;6275295;28;20247;-44
2023/06/06 10:14:23;;;;;;;3.88;3.08;;;24.50;51.10;;;;;;6277769;28;20044;-43
2023/06/06 10:17:26;;;;;;;3.83;2.72;;;24.60;51.20;;;;;;6272443;28;20121;-43
2023/06/06 10:20:28;;;;;;;4.15;3.17;;;24.60;50.80;;;;;;6269477;28;20581;-45
2023/06/06 10:23:29;;;;;;;5.90;2.72;;;24.60;51.00;;;;;;6249340;28;20036;-44
2023/06/06 10:26:45;;;;;;;3.53;2.50;;;24.50;51.00;;;;;;6245003;28;20039;-44
2023/06/06 10:29:50;;;;;;;2.10;1.90;;;24.70;51.10;;;;;;6252830;28;20054;-43
2023/06/06 10:33:06;;;;;;;4.10;1.98;;;24.60;50.60;;;;;;6241611;28;20055;-45
2023/06/06 10:36:13;;;;;;;2.08;1.80;;;24.40;50.40;;;;;;6245677;28;20033;-45
2023/06/06 10:39:17;;;;;;;2.80;2.28;;;24.80;50.70;;;;;;6254137;28;20090;-43
2023/06/06 10:42:19;;;;;;;2.75;1.85;;;24.80;50.10;;;;;;6252542;28;20071;-46
2023/06/06 10:45:40;;;;;;;2.30;1.92;;;24.80;50.30;;;;;;6261828;28;20041;-44
2023/06/06 10:48:45;;;;;;;3.40;2.00;;;24.70;50.00;;;;;;6256115;28;20129;-46
2023/06/06 10:51:47;;;;;;;2.00;1.80;;;24.90;49.90;;;;;;6263796;28;20070;-48
2023/06/06 10:54:51;;;;;;;2.45;1.80;;;24.80;49.80;;;;;;6256236;28;20040;-45
2023/06/06 10:57:55;;;;;;;2.00;1.80;;;24.30;49.50;;;;;;6261536;28;20028;-45
2023/06/06 11:00:59;;;;;;;2.00;1.80;;;24.90;48.20;;;;;;6260627;28;20519;-45
2023/06/06 11:04:01;;;;;;;2.25;1.50;;;25.00;49.90;;;;;;6261119;28;20082;-46
2023/06/06 11:07:15;;;;;;;1.85;1.70;;;24.80;49.50;;;;;;6271984;28;20040;-46
2023/06/06 11:10:22;;;;;;;1.90;1.40;;;24.90;49.60;;;;;;6267815;28;20623;-44
2023/06/06 11:13:26;;;;;;;1.58;1.48;;;24.90;49.10;;;;;;6240754;28;20443;-45
2023/06/06 11:16:29;;;;;;;1.75;1.65;;;24.60;49.10;;;;;;6256555;28;20071;-45
2023/06/06 11:19:34;;;;;;;1.50;1.40;;;24.80;48.90;;;;;;6266427;28;20222;-48
2023/06/06 11:22:36;;;;;;;1.40;1.30;;;24.80;48.80;;;;;;6264465;28;20314;-48
2023/06/06 11:25:38;;;;;;;1.42;1.33;;;24.80;48.90;;;;;;6264679;28;20459;-45
2023/06/06 11:28:41;;;;;;;1.67;1.30;;;24.80;48.70;;;;;;6261381;28;20738;-45
2023/06/06 11:31:42;;;;;;;1.30;1.20;;;24.50;48.50;;;;;;6263901;28;20039;-46
2023/06/06 11:34:44;;;;;;;1.02;0.93;;;24.40;48.40;;;;;;6260883;28;20111;-46
2023/06/06 11:37:46;;;;;;;1.48;1.17;;;26.70;49.50;;;;;;6265086;28;20058;-45
2023/06/06 11:40:48;;;;;;;1.13;1.00;;;24.90;48.50;;;;;;6260887;28;20519;-46
2023/06/06 11:43:51;;;;;;;1.20;1.02;;;24.90;48.40;;;;;;6250419;28;20044;-51
2023/06/06 11:46:53;;;;;;;1.20;1.10;;;25.00;48.30;;;;;;6257134;28;20055;-50
2023/06/06 11:49:55;;;;;;;1.38;1.27;;;25.00;48.10;;;;;;6264090;28;20044;-45
2023/06/06 11:52:57;;;;;;;2.88;1.50;;;25.00;48.30;;;;;;6258826;28;20044;-46
2023/06/06 11:55:59;;;;;;;2.00;1.80;;;24.50;47.60;;;;;;6267287;28;20040;-46
2023/06/06 11:59:01;;;;;;;1.33;1.10;;;25.00;47.70;;;;;;6260421;28;20125;-46
2023/06/06 12:02:03;;;;;;;1.42;1.33;;;25.10;47.90;;;;;;6239536;28;20040;-47
2023/06/06 12:05:05;;;;;;;1.33;1.15;;;24.90;47.50;;;;;;6249954;28;20629;-45
2023/06/06 12:08:07;;;;;;;2.97;1.50;;;25.30;47.60;;;;;;6266161;28;20618;-43
2023/06/06 12:11:26;;;;;;;1.45;1.15;;;25.10;47.40;;;;;;6261947;28;20037;-42
2023/06/06 12:14:29;;;;;;;1.45;1.35;;;25.00;47.20;;;;;;6265630;28;20495;-43
2023/06/06 12:17:31;;;;;;;2.35;1.40;;;25.00;47.30;;;;;;6258260;28;20040;-44
2023/06/06 12:20:33;;;;;;;1.95;1.50;;;25.10;47.40;;;;;;6247516;28;20116;-44
2023/06/06 12:23:35;;;;;;;1.65;1.23;;;24.60;47.20;;;;;;6265396;28;20109;-42
2023/06/06 12:26:45;;;;;;;1.50;1.40;;;25.20;47.10;;;;;;6264914;28;20491;-42
2023/06/06 12:29:50;;;;;;;1.50;1.10;;;25.10;47.10;;;;;;6265320;28;20044;-43
2023/06/06 12:32:54;;;;;;;1.77;1.48;;;25.10;47.20;;;;;;6263014;28;20028;-43
2023/06/06 12:36:17;;;;;;;2.15;1.50;;;25.20;47.30;;;;;;6257283;28;20028;-43
2023/06/06 12:39:19;;;;;;;2.20;1.50;;;25.10;46.80;;;;;;6260648;28;20174;-43
2023/06/06 12:42:20;;;;;;;2.25;1.70;;;25.20;46.90;;;;;;6255364;28;21020;-43
2023/06/06 12:45:24;;;;;;;2.50;2.30;;;25.20;47.10;;;;;;6224333;28;20569;-43
2023/06/06 12:48:28;;;;;;;1.90;1.60;;;25.20;46.80;;;;;;6248204;28;20040;-41
2023/06/06 12:51:33;;;;;;;2.38;1.40;;;25.20;46.80;;;;;;6264079;28;20047;-44
2023/06/06 12:54:40;;;;;;;1.50;1.30;;;24.90;46.10;;;;;;6237259;28;20032;-42
2023/06/06 12:57:41;;;;;;;1.20;1.10;;;25.30;46.40;;;;;;6254283;28;20033;-42
2023/06/06 13:00:45;;;;;;;2.15;1.25;;;24.90;46.20;;;;;;6270703;28;20049;-43
2023/06/06 13:03:46;;;;;;;1.52;1.42;;;25.30;46.40;;;;;;6259194;28;20033;-41
2023/06/06 13:06:49;;;;;;;1.42;1.27;;;25.20;46.00;;;;;;6252367;28;20029;-41
2023/06/06 13:09:55;;;;;;;2.53;1.63;;;25.30;45.70;;;;;;6252048;28;20770;-42
2023/06/06 13:12:56;;;;;;;1.50;1.30;;;25.00;46.00;;;;;;6256879;28;20029;-42
2023/06/06 13:16:00;;;;;;;1.83;1.30;;;25.30;46.00;;;;;;6253744;28;20048;-44
2023/06/06 13:19:02;;;;;;;1.50;1.30;;;25.40;45.70;;;;;;6256716;28;20161;-43
2023/06/06 13:22:04;;;;;;;1.50;1.40;;;25.10;45.80;;;;;;6259854;28;20047;-42
2023/06/06 13:25:07;;;;;;;1.17;1.08;;;25.30;45.60;;;;;;6263748;28;20040;-44
2023/06/06 13:28:13;;;;;;;1.25;1.15;;;25.20;45.40;;;;;;6252080;28;20040;-41
2023/06/06 13:31:15;;;;;;;1.30;1.20;;;25.40;45.40;;;;;;6256472;28;20045;-42
2023/06/06 13:34:17;;;;;;;1.40;1.30;;;25.00;45.40;;;;;;6260123;28;20033;-45
2023/06/06 13:37:18;;;;;;;1.20;1.10;;;25.30;45.20;;;;;;6263914;28;21054;-42
2023/06/06 13:40:21;;;;;;;1.95;1.10;;;25.40;45.30;;;;;;6253952;28;20071;-41
2023/06/06 13:43:22;;;;;;;1.88;0.88;;;24.60;44.60;;;;;;6258419;28;20691;-45
2023/06/06 13:46:24;;;;;;;1.13;1.02;;;25.30;44.90;;;;;;6251627;28;20535;-43
2023/06/06 13:49:26;;;;;;;1.25;1.15;;;25.50;45.00;;;;;;6254246;28;20036;-41
2023/06/06 13:52:28;;;;;;;1.63;1.30;;;25.40;44.80;;;;;;6244533;28;20322;-41
2023/06/06 13:55:31;;;;;;;1.30;1.00;;;25.20;45.10;;;;;;6242686;28;20090;-42
2023/06/06 13:58:38;;;;;;;1.02;0.80;;;25.30;44.90;;;;;;6185345;28;20056;-42
2023/06/06 14:01:41;;;;;;;1.55;1.10;;;25.50;44.90;;;;;;6248549;28;20759;-43
2023/06/06 14:04:47;;;;;;;1.10;0.80;;;25.00;44.20;;;;;;6229829;28;20041;-42
2023/06/06 14:07:50;;;;;;;1.17;0.98;;;25.40;44.50;;;;;;6240320;28;20115;-41
2023/06/06 14:10:52;;;;;;;1.20;1.00;;;26.60;45.00;;;;;;6245595;28;20033;-45
2023/06/06 14:13:54;;;;;;;1.30;1.20;;;25.50;44.40;;;;;;6243081;28;20037;-45
2023/06/06 14:16:55;;;;;;;1.17;1.08;;;25.50;44.40;;;;;;6238790;28;20550;-46
2023/06/06 14:19:57;;;;;;;1.20;1.10;;;25.50;44.20;;;;;;6252760;28;20466;-43
2023/06/06 14:23:01;;;;;;;1.20;1.02;;;25.20;44.40;;;;;;6252801;28;20094;-46
2023/06/06 14:26:03;;;;;;;1.10;1.00;;;25.50;43.80;;;;;;6242784;28;20032;-46
2023/06/06 14:29:08;;;;;;;1.25;1.02;;;25.50;44.10;;;;;;6226526;28;20040;-49
2023/06/06 14:32:11;;;;;;;1.00;0.80;;;25.60;44.10;;;;;;6221668;28;20814;-50
2023/06/06 14:35:13;;;;;;;1.58;1.10;;;25.10;44.10;;;;;;6252225;28;20036;-49
2023/06/06 14:38:14;;;;;;;2.63;1.10;;;25.40;43.80;;;;;;6221731;28;20028;-49
2023/06/06 14:41:17;;;;;;;1.55;1.10;;;25.60;43.90;;;;;;6234543;28;20040;-48
2023/06/06 14:44:20;;;;;;;0.90;0.80;;;25.60;44.30;;;;;;6227079;28;20036;-45
2023/06/06 14:47:25;;;;;;;3.28;1.20;;;25.50;43.90;;;;;;6236782;28;20121;-47
2023/06/06 14:50:27;;;;;;;1.48;1.10;;;25.50;43.50;;;;;;6256221;28;20098;-44
2023/06/06 14:53:28;;;;;;;2.25;0.88;;;25.50;44.00;;;;;;6251814;28;20076;-46
2023/06/06 14:56:31;;;;;;;1.50;0.85;;;25.90;43.90;;;;;;6249317;28;20039;-46
2023/06/06 14:59:34;;;;;;;1.27;0.90;;;25.50;43.60;;;;;;6241844;28;20040;-44
2023/06/06 15:02:37;;;;;;;0.90;0.80;;;25.50;43.70;;;;;;6240328;28;20033;-47
2023/06/06 15:05:39;;;;;;;1.15;0.93;;;25.70;43.70;;;;;;6205904;28;20047;-44
2023/06/06 15:08:40;;;;;;;1.50;0.98;;;25.70;43.40;;;;;;6243808;28;20029;-46
2023/06/06 15:11:42;;;;;;;1.23;1.00;;;25.60;43.40;;;;;;6251445;28;20029;-44
2023/06/06 15:14:44;;;;;;;0.93;0.82;;;25.60;43.40;;;;;;6254786;28;20040;-46
2023/06/06 15:17:46;;;;;;;1.00;0.90;;;25.60;43.30;;;;;;6253182;28;20072;-47
2023/06/06 15:20:47;;;;;;;1.10;1.00;;;25.60;43.30;;;;;;6256365;28;20115;-46
2023/06/06 15:23:49;;;;;;;0.80;0.80;;;25.50;43.30;;;;;;6252107;28;20118;-43
2023/06/06 15:26:56;;;;;;;1.27;1.17;;;24.10;42.50;;;;;;6258477;28;20041;-55
2023/06/06 15:29:59;;;;;;;1.00;1.00;;;25.50;43.10;;;;;;6256336;28;20827;-44
2023/06/06 15:33:01;;;;;;;1.00;0.90;;;25.50;43.20;;;;;;6254029;28;20126;-45
2023/06/06 15:36:02;;;;;;;1.25;1.00;;;25.60;43.50;;;;;;6250113;28;20033;-44
2023/06/06 15:39:05;;;;;;;1.10;0.80;;;25.50;43.40;;;;;;6256297;28;20094;-44
2023/06/06 15:42:07;;;;;;;1.08;0.90;;;25.50;43.30;;;;;;6253022;28;20028;-44
2023/06/06 15:45:09;;;;;;;1.05;0.90;;;25.60;43.70;;;;;;6252714;28;20177;-46
2023/06/06 15:48:15;;;;;;;1.77;0.80;;;25.70;44.40;;;;;;6248081;28;20037;-44
2023/06/06 15:51:17;;;;;;;0.95;0.93;;;25.60;44.50;;;;;;6237501;28;20032;-45
2023/06/06 15:54:18;;;;;;;1.92;1.00;;;25.50;44.30;;;;;;6255031;28;20057;-46
2023/06/06 15:57:22;;;;;;;0.82;0.82;;;25.70;44.50;;;;;;6252587;28;20048;-44
2023/06/06 16:00:25;;;;;;;3.20;0.70;;;25.60;44.50;;;;;;6200059;28;20041;-44
2023/06/06 16:03:27;;;;;;;1.13;1.02;;;25.50;44.80;;;;;;6255702;28;20036;-47